sensor_id;sensor_type;location;lat;lon;timestamp;pressure;altitude;pressure_sealevel;temperature;humidity
36222;BME280;22266;52.340;4.962;2023-02-20T00:00:34;102425.38;;;6.96;80.37
36222;BME280;22266;52.340;4.962;2023-02-20T00:03:03;102426.69;;;7.02;80.28
36222;BME280;22266;52.340;4.962;2023-02-20T00:05:30;102415.97;;;7.02;80.03
36222;BME280;22266;52.340;4.962;2023-02-20T00:07:57;102414.25;;;7.01;80.08
36222;BME280;22266;52.340;4.962;2023-02-20T00:10:23;102409.63;;;7.03;80.47
36222;BME280;22266;52.340;4.962;2023-02-20T00:12:51;102406.22;;;7.01;80.40
36222;BME280;22266;52.340;4.962;2023-02-20T00:15:18;102407.34;;;6.98;80.71
36222;BME280;22266;52.340;4.962;2023-02-20T00:17:46;102400.16;;;6.99;80.51
36222;BME280;22266;52.340;4.962;2023-02-20T00:20:15;102394.81;;;6.99;80.62
36222;BME280;22266;52.340;4.962;2023-02-20T00:22:41;102396.75;;;6.97;80.66
36222;BME280;22266;52.340;4.962;2023-02-20T00:25:08;102396.50;;;7.00;80.62
36222;BME280;22266;52.340;4.962;2023-02-20T00:27:34;102391.16;;;7.00;80.84
36222;BME280;22266;52.340;4.962;2023-02-20T00:30:01;102391.88;;;7.02;81.32
36222;BME280;22266;52.340;4.962;2023-02-20T00:32:27;102385.38;;;7.04;80.88
36222;BME280;22266;52.340;4.962;2023-02-20T00:34:54;102384.03;;;7.10;81.29
36222;BME280;22266;52.340;4.962;2023-02-20T00:37:20;102377.44;;;7.14;80.99
36222;BME280;22266;52.340;4.962;2023-02-20T00:39:47;102377.81;;;7.09;80.91
36222;BME280;22266;52.340;4.962;2023-02-20T00:42:13;102381.16;;;7.02;80.92
36222;BME280;22266;52.340;4.962;2023-02-20T00:44:40;102381.75;;;7.05;81.03
36222;BME280;22266;52.340;4.962;2023-02-20T00:47:06;102364.81;;;7.05;81.02
36222;BME280;22266;52.340;4.962;2023-02-20T00:49:33;102371.03;;;7.05;80.97
36222;BME280;22266;52.340;4.962;2023-02-20T00:52:12;102361.88;;;7.08;81.00
36222;BME280;22266;52.340;4.962;2023-02-20T00:54:40;102351.06;;;7.09;81.19
36222;BME280;22266;52.340;4.962;2023-02-20T00:57:06;102326.81;;;7.11;81.60
36222;BME280;22266;52.340;4.962;2023-02-20T00:59:33;102322.69;;;7.07;80.98
36222;BME280;22266;52.340;4.962;2023-02-20T01:01:59;102321.00;;;7.06;81.49
36222;BME280;22266;52.340;4.962;2023-02-20T01:04:26;102300.69;;;7.03;81.65
36222;BME280;22266;52.340;4.962;2023-02-20T01:06:52;102297.44;;;7.00;81.55
36222;BME280;22266;52.340;4.962;2023-02-20T01:09:19;102292.81;;;7.02;81.66
36222;BME280;22266;52.340;4.962;2023-02-20T01:11:47;102294.75;;;7.00;81.75
36222;BME280;22266;52.340;4.962;2023-02-20T01:14:13;102294.06;;;6.98;82.16
36222;BME280;22266;52.340;4.962;2023-02-20T01:16:49;102296.44;;;7.01;82.90
36222;BME280;22266;52.340;4.962;2023-02-20T01:19:20;102304.63;;;6.99;82.40
36222;BME280;22266;52.340;4.962;2023-02-20T01:21:47;102304.38;;;7.02;82.76
36222;BME280;22266;52.340;4.962;2023-02-20T01:24:15;102299.28;;;6.99;81.78
36222;BME280;22266;52.340;4.962;2023-02-20T01:26:46;102296.75;;;6.98;82.61
36222;BME280;22266;52.340;4.962;2023-02-20T01:29:13;102295.19;;;6.95;82.15
36222;BME280;22266;52.340;4.962;2023-02-20T01:31:49;102301.25;;;6.97;82.26
36222;BME280;22266;52.340;4.962;2023-02-20T01:34:18;102282.63;;;6.96;82.21
36222;BME280;22266;52.340;4.962;2023-02-20T01:36:49;102290.94;;;6.92;83.10
36222;BME280;22266;52.340;4.962;2023-02-20T01:39:24;102292.66;;;6.93;82.38
36222;BME280;22266;52.340;4.962;2023-02-20T01:41:55;102300.94;;;6.90;82.69
36222;BME280;22266;52.340;4.962;2023-02-20T01:44:31;102298.41;;;6.89;83.23
36222;BME280;22266;52.340;4.962;2023-02-20T01:46:59;102287.81;;;6.87;83.03
36222;BME280;22266;52.340;4.962;2023-02-20T01:49:30;102282.91;;;6.92;83.29
36222;BME280;22266;52.340;4.962;2023-02-20T01:52:13;102277.84;;;6.89;83.28
36222;BME280;22266;52.340;4.962;2023-02-20T01:54:42;102273.44;;;6.88;83.05
36222;BME280;22266;52.340;4.962;2023-02-20T01:57:16;102267.13;;;6.89;83.27
36222;BME280;22266;52.340;4.962;2023-02-20T01:59:45;102262.03;;;6.86;82.83
36222;BME280;22266;52.340;4.962;2023-02-20T02:02:13;102264.56;;;6.88;83.41
36222;BME280;22266;52.340;4.962;2023-02-20T02:04:41;102261.19;;;6.86;82.79
36222;BME280;22266;52.340;4.962;2023-02-20T02:07:08;102265.56;;;6.87;83.38
36222;BME280;22266;52.340;4.962;2023-02-20T02:09:46;102275.41;;;6.86;83.46
36222;BME280;22266;52.340;4.962;2023-02-20T02:12:14;102279.66;;;6.89;83.25
36222;BME280;22266;52.340;4.962;2023-02-20T02:14:41;102265.41;;;6.88;83.60
36222;BME280;22266;52.340;4.962;2023-02-20T02:22:59;102254.69;;;6.88;83.14
36222;BME280;22266;52.340;4.962;2023-02-20T02:25:46;102247.94;;;6.84;83.50
36222;BME280;22266;52.340;4.962;2023-02-20T02:31:42;102243.44;;;6.85;83.87
36222;BME280;22266;52.340;4.962;2023-02-20T02:34:42;102254.00;;;6.86;83.75
36222;BME280;22266;52.340;4.962;2023-02-20T02:37:22;102243.16;;;6.88;83.68
36222;BME280;22266;52.340;4.962;2023-02-20T02:40:03;102240.47;;;6.88;83.66
36222;BME280;22266;52.340;4.962;2023-02-20T02:42:42;102236.84;;;6.89;84.04
36222;BME280;22266;52.340;4.962;2023-02-20T02:45:17;102228.81;;;6.89;84.10
36222;BME280;22266;52.340;4.962;2023-02-20T02:47:52;102214.69;;;6.87;83.93
36222;BME280;22266;52.340;4.962;2023-02-20T02:50:31;102235.28;;;6.86;84.60
36222;BME280;22266;52.340;4.962;2023-02-20T02:53:01;102235.00;;;6.89;84.52
36222;BME280;22266;52.340;4.962;2023-02-20T02:55:29;102232.34;;;6.89;84.59
36222;BME280;22266;52.340;4.962;2023-02-20T02:57:56;102236.84;;;6.89;84.77
36222;BME280;22266;52.340;4.962;2023-02-20T03:00:26;102226.13;;;6.89;84.88
36222;BME280;22266;52.340;4.962;2023-02-20T03:03:24;102222.59;;;6.88;85.26
36222;BME280;22266;52.340;4.962;2023-02-20T03:06:04;102217.13;;;6.90;85.00
36222;BME280;22266;52.340;4.962;2023-02-20T03:08:39;102229.50;;;6.91;85.48
36222;BME280;22266;52.340;4.962;2023-02-20T03:11:19;102225.97;;;6.90;85.74
36222;BME280;22266;52.340;4.962;2023-02-20T03:13:52;102215.97;;;6.92;85.78
36222;BME280;22266;52.340;4.962;2023-02-20T03:17:00;102213.88;;;6.96;85.55
36222;BME280;22266;52.340;4.962;2023-02-20T03:22:01;102216.13;;;7.01;85.55
36222;BME280;22266;52.340;4.962;2023-02-20T03:24:32;102214.19;;;7.03;85.85
36222;BME280;22266;52.340;4.962;2023-02-20T03:32:39;102193.03;;;7.00;85.65
36222;BME280;22266;52.340;4.962;2023-02-20T03:35:27;102183.16;;;7.00;85.91
36222;BME280;22266;52.340;4.962;2023-02-20T03:38:15;102187.69;;;7.00;86.29
36222;BME280;22266;52.340;4.962;2023-02-20T03:41:03;102189.38;;;7.01;86.15
36222;BME280;22266;52.340;4.962;2023-02-20T03:43:51;102185.44;;;7.05;86.26
36222;BME280;22266;52.340;4.962;2023-02-20T03:46:20;102186.69;;;7.01;86.41
36222;BME280;22266;52.340;4.962;2023-02-20T03:48:56;102184.72;;;7.03;86.14
36222;BME280;22266;52.340;4.962;2023-02-20T03:51:25;102175.84;;;7.02;86.86
36222;BME280;22266;52.340;4.962;2023-02-20T03:54:30;102180.66;;;7.08;86.52
36222;BME280;22266;52.340;4.962;2023-02-20T03:57:03;102175.88;;;7.12;87.60
36222;BME280;22266;52.340;4.962;2023-02-20T03:59:39;102167.84;;;7.12;86.69
36222;BME280;22266;52.340;4.962;2023-02-20T04:02:12;102153.59;;;7.11;87.38
36222;BME280;22266;52.340;4.962;2023-02-20T04:04:47;102153.59;;;7.11;87.29
36222;BME280;22266;52.340;4.962;2023-02-20T04:07:21;102155.84;;;7.16;88.16
36222;BME280;22266;52.340;4.962;2023-02-20T04:09:49;102157.25;;;7.20;87.63
36222;BME280;22266;52.340;4.962;2023-02-20T04:12:22;102163.34;;;7.22;87.44
36222;BME280;22266;52.340;4.962;2023-02-20T04:14:51;102160.09;;;7.18;87.40
36222;BME280;22266;52.340;4.962;2023-02-20T04:17:24;102167.72;;;7.23;87.44
36222;BME280;22266;52.340;4.962;2023-02-20T04:19:53;102159.25;;;7.28;87.53
36222;BME280;22266;52.340;4.962;2023-02-20T04:22:25;102163.34;;;7.32;87.00
36222;BME280;22266;52.340;4.962;2023-02-20T04:25:06;102162.78;;;7.28;86.91
36222;BME280;22266;52.340;4.962;2023-02-20T04:27:37;102166.28;;;7.29;87.49
36222;BME280;22266;52.340;4.962;2023-02-20T04:30:04;102170.69;;;7.30;86.91
36222;BME280;22266;52.340;4.962;2023-02-20T04:32:31;102167.31;;;7.37;86.90
36222;BME280;22266;52.340;4.962;2023-02-20T04:34:58;102181.25;;;7.41;87.07
36222;BME280;22266;52.340;4.962;2023-02-20T04:37:25;102166.72;;;7.43;86.56
36222;BME280;22266;52.340;4.962;2023-02-20T04:39:53;102166.03;;;7.41;86.38
36222;BME280;22266;52.340;4.962;2023-02-20T04:42:20;102161.50;;;7.32;86.96
36222;BME280;22266;52.340;4.962;2023-02-20T04:44:48;102164.19;;;7.32;87.12
36222;BME280;22266;52.340;4.962;2023-02-20T04:47:17;102164.63;;;7.37;87.56
36222;BME280;22266;52.340;4.962;2023-02-20T04:49:43;102158.97;;;7.40;86.89
36222;BME280;22266;52.340;4.962;2023-02-20T04:52:13;102156.28;;;7.40;86.78
36222;BME280;22266;52.340;4.962;2023-02-20T04:54:40;102161.22;;;7.45;86.79
36222;BME280;22266;52.340;4.962;2023-02-20T04:57:09;102171.81;;;7.47;86.05
36222;BME280;22266;52.340;4.962;2023-02-20T04:59:35;102166.31;;;7.38;86.46
36222;BME280;22266;52.340;4.962;2023-02-20T05:02:03;102175.03;;;7.40;86.61
36222;BME280;22266;52.340;4.962;2023-02-20T05:04:29;102166.31;;;7.38;86.74
36222;BME280;22266;52.340;4.962;2023-02-20T05:06:56;102169.00;;;7.38;87.19
36222;BME280;22266;52.340;4.962;2023-02-20T05:09:23;102177.44;;;7.43;86.93
36222;BME280;22266;52.340;4.962;2023-02-20T05:11:50;102186.88;;;7.48;86.83
36222;BME280;22266;52.340;4.962;2023-02-20T05:14:16;102182.09;;;7.41;86.66
36222;BME280;22266;52.340;4.962;2023-02-20T05:16:43;102195.09;;;7.46;86.42
36222;BME280;22266;52.340;4.962;2023-02-20T05:19:11;102183.66;;;7.44;86.78
36222;BME280;22266;52.340;4.962;2023-02-20T05:21:42;102180.13;;;7.43;86.84
36222;BME280;22266;52.340;4.962;2023-02-20T05:24:28;102175.59;;;7.44;86.67
36222;BME280;22266;52.340;4.962;2023-02-20T05:26:55;102172.34;;;7.40;86.66
36222;BME280;22266;52.340;4.962;2023-02-20T05:29:22;102173.66;;;7.46;86.64
36222;BME280;22266;52.340;4.962;2023-02-20T05:31:49;102167.59;;;7.34;86.96
36222;BME280;22266;52.340;4.962;2023-02-20T05:34:16;102173.94;;;7.33;87.28
36222;BME280;22266;52.340;4.962;2023-02-20T05:36:42;102163.75;;;7.37;87.70
36222;BME280;22266;52.340;4.962;2023-02-20T05:39:08;102170.25;;;7.44;87.25
36222;BME280;22266;52.340;4.962;2023-02-20T05:41:35;102168.41;;;7.44;86.76
36222;BME280;22266;52.340;4.962;2023-02-20T05:44:01;102177.00;;;7.48;86.46
36222;BME280;22266;52.340;4.962;2023-02-20T05:46:28;102167.00;;;7.40;86.78
36222;BME280;22266;52.340;4.962;2023-02-20T05:48:54;102166.16;;;7.40;86.69
36222;BME280;22266;52.340;4.962;2023-02-20T05:51:26;102167.28;;;7.47;86.81
36222;BME280;22266;52.340;4.962;2023-02-20T05:53:54;102157.41;;;7.48;86.95
36222;BME280;22266;52.340;4.962;2023-02-20T05:56:21;102163.22;;;7.43;86.54
36222;BME280;22266;52.340;4.962;2023-02-20T05:58:49;102152.50;;;7.43;86.54
36222;BME280;22266;52.340;4.962;2023-02-20T06:01:34;102143.19;;;7.37;86.45
36222;BME280;22266;52.340;4.962;2023-02-20T06:04:01;102142.88;;;7.40;86.83
36222;BME280;22266;52.340;4.962;2023-02-20T06:06:36;102147.13;;;7.43;86.17
36222;BME280;22266;52.340;4.962;2023-02-20T06:09:04;102138.25;;;7.42;87.06
36222;BME280;22266;52.340;4.962;2023-02-20T06:11:33;102145.03;;;7.47;86.68
36222;BME280;22266;52.340;4.962;2023-02-20T06:14:00;102146.56;;;7.49;86.44
36222;BME280;22266;52.340;4.962;2023-02-20T06:16:28;102143.19;;;7.47;86.16
36222;BME280;22266;52.340;4.962;2023-02-20T06:18:56;102159.25;;;7.47;86.91
36222;BME280;22266;52.340;4.962;2023-02-20T06:21:23;102161.22;;;7.45;86.82
36222;BME280;22266;52.340;4.962;2023-02-20T06:23:51;102168.84;;;7.50;86.94
36222;BME280;22266;52.340;4.962;2023-02-20T06:26:18;102167.59;;;7.54;86.88
36222;BME280;22266;52.340;4.962;2023-02-20T06:28:45;102165.19;;;7.51;86.47
36222;BME280;22266;52.340;4.962;2023-02-20T06:31:12;102171.53;;;7.50;86.19
36222;BME280;22266;52.340;4.962;2023-02-20T06:33:39;102158.25;;;7.48;86.32
36222;BME280;22266;52.340;4.962;2023-02-20T06:36:05;102167.16;;;7.39;86.85
36222;BME280;22266;52.340;4.962;2023-02-20T06:38:43;102156.44;;;7.39;87.15
36222;BME280;22266;52.340;4.962;2023-02-20T06:41:10;102158.84;;;7.42;86.39
36222;BME280;22266;52.340;4.962;2023-02-20T06:43:36;102157.00;;;7.42;86.83
36222;BME280;22266;52.340;4.962;2023-02-20T06:46:03;102154.16;;;7.44;86.10
36222;BME280;22266;52.340;4.962;2023-02-20T06:48:29;102162.78;;;7.48;86.53
36222;BME280;22266;52.340;4.962;2023-02-20T06:50:56;102148.81;;;7.44;86.53
36222;BME280;22266;52.340;4.962;2023-02-20T06:53:22;102146.00;;;7.46;86.49
36222;BME280;22266;52.340;4.962;2023-02-20T06:55:49;102149.09;;;7.41;86.54
36222;BME280;22266;52.340;4.962;2023-02-20T06:58:15;102151.91;;;7.39;86.75
36222;BME280;22266;52.340;4.962;2023-02-20T07:00:41;102153.34;;;7.43;87.03
36222;BME280;22266;52.340;4.962;2023-02-20T07:03:08;102156.56;;;7.47;86.96
36222;BME280;22266;52.340;4.962;2023-02-20T07:05:34;102161.78;;;7.49;86.72
36222;BME280;22266;52.340;4.962;2023-02-20T07:08:01;102152.47;;;7.53;85.96
36222;BME280;22266;52.340;4.962;2023-02-20T07:10:27;102160.06;;;7.57;86.05
36222;BME280;22266;52.340;4.962;2023-02-20T07:12:54;102153.19;;;7.55;85.85
36222;BME280;22266;52.340;4.962;2023-02-20T07:15:20;102172.34;;;7.60;85.86
36222;BME280;22266;52.340;4.962;2023-02-20T07:17:47;102169.97;;;7.57;86.35
36222;BME280;22266;52.340;4.962;2023-02-20T07:20:13;102163.31;;;7.61;86.02
36222;BME280;22266;52.340;4.962;2023-02-20T07:22:51;102169.69;;;7.60;85.90
36222;BME280;22266;52.340;4.962;2023-02-20T07:25:19;102175.88;;;7.60;86.38
36222;BME280;22266;52.340;4.962;2023-02-20T07:27:46;102175.31;;;7.57;86.68
36222;BME280;22266;52.340;4.962;2023-02-20T07:30:12;102182.50;;;7.56;86.36
36222;BME280;22266;52.340;4.962;2023-02-20T07:32:39;102173.91;;;7.62;85.66
36222;BME280;22266;52.340;4.962;2023-02-20T07:35:06;102185.22;;;7.66;85.83
36222;BME280;22266;52.340;4.962;2023-02-20T07:37:35;102188.44;;;7.60;85.87
36222;BME280;22266;52.340;4.962;2023-02-20T07:40:02;102185.91;;;7.58;85.90
36222;BME280;22266;52.340;4.962;2023-02-20T07:42:28;102189.13;;;7.52;86.33
36222;BME280;22266;52.340;4.962;2023-02-20T07:45:18;102175.63;;;7.54;87.03
36222;BME280;22266;52.340;4.962;2023-02-20T07:47:44;102173.22;;;7.51;86.84
36222;BME280;22266;52.340;4.962;2023-02-20T07:50:13;102177.72;;;7.60;86.58
36222;BME280;22266;52.340;4.962;2023-02-20T07:52:40;102166.44;;;7.66;86.88
36222;BME280;22266;52.340;4.962;2023-02-20T07:55:07;102171.94;;;7.74;86.69
36222;BME280;22266;52.340;4.962;2023-02-20T07:57:35;102171.06;;;7.74;86.19
36222;BME280;22266;52.340;4.962;2023-02-20T08:00:03;102177.00;;;7.67;86.63
36222;BME280;22266;52.340;4.962;2023-02-20T08:02:37;102181.97;;;7.62;86.08
36222;BME280;22266;52.340;4.962;2023-02-20T08:05:03;102168.41;;;7.64;87.06
36222;BME280;22266;52.340;4.962;2023-02-20T08:07:30;102168.38;;;7.74;86.65
36222;BME280;22266;52.340;4.962;2023-02-20T08:09:57;102156.53;;;7.76;86.82
36222;BME280;22266;52.340;4.962;2023-02-20T08:12:23;102152.88;;;7.67;86.55
36222;BME280;22266;52.340;4.962;2023-02-20T08:14:50;102176.84;;;7.69;87.09
36222;BME280;22266;52.340;4.962;2023-02-20T08:17:19;102161.78;;;7.68;86.78
36222;BME280;22266;52.340;4.962;2023-02-20T08:19:45;102179.41;;;7.61;87.28
36222;BME280;22266;52.340;4.962;2023-02-20T08:22:12;102181.97;;;7.62;87.34
36222;BME280;22266;52.340;4.962;2023-02-20T08:24:38;102177.69;;;7.69;87.39
36222;BME280;22266;52.340;4.962;2023-02-20T08:27:05;102177.00;;;7.77;86.76
36222;BME280;22266;52.340;4.962;2023-02-20T08:29:32;102160.91;;;7.77;86.69
36222;BME280;22266;52.340;4.962;2023-02-20T08:31:58;102166.56;;;7.84;86.31
36222;BME280;22266;52.340;4.962;2023-02-20T08:34:25;102164.44;;;7.87;86.33
36222;BME280;22266;52.340;4.962;2023-02-20T08:36:51;102155.13;;;7.82;86.42
36222;BME280;22266;52.340;4.962;2023-02-20T08:39:18;102160.47;;;7.82;86.13
36222;BME280;22266;52.340;4.962;2023-02-20T08:41:45;102151.19;;;7.76;86.99
36222;BME280;22266;52.340;4.962;2023-02-20T08:44:13;102156.38;;;7.78;86.95
36222;BME280;22266;52.340;4.962;2023-02-20T08:46:46;102152.31;;;7.74;87.09
36222;BME280;22266;52.340;4.962;2023-02-20T08:49:13;102148.09;;;7.71;86.89
36222;BME280;22266;52.340;4.962;2023-02-20T08:51:45;102152.88;;;7.77;86.96
36222;BME280;22266;52.340;4.962;2023-02-20T08:54:12;102148.63;;;7.84;87.21
36222;BME280;22266;52.340;4.962;2023-02-20T08:56:40;102141.19;;;7.78;86.94
36222;BME280;22266;52.340;4.962;2023-02-20T08:59:07;102147.34;;;7.88;86.88
36222;BME280;22266;52.340;4.962;2023-02-20T09:01:34;102145.66;;;7.87;86.54
36222;BME280;22266;52.340;4.962;2023-02-20T09:04:01;102142.16;;;7.87;87.09
36222;BME280;22266;52.340;4.962;2023-02-20T09:06:28;102145.09;;;7.84;87.27
36222;BME280;22266;52.340;4.962;2023-02-20T09:08:54;102156.38;;;7.87;86.22
36222;BME280;22266;52.340;4.962;2023-02-20T09:11:21;102154.56;;;7.88;87.24
36222;BME280;22266;52.340;4.962;2023-02-20T09:13:48;102153.44;;;7.81;86.68
36222;BME280;22266;52.340;4.962;2023-02-20T09:16:18;102156.66;;;7.84;87.44
36222;BME280;22266;52.340;4.962;2023-02-20T09:18:45;102155.53;;;7.87;86.31
36222;BME280;22266;52.340;4.962;2023-02-20T09:21:14;102152.44;;;7.91;86.63
36222;BME280;22266;52.340;4.962;2023-02-20T09:23:41;102142.09;;;7.97;85.96
36222;BME280;22266;52.340;4.962;2023-02-20T09:26:08;102149.88;;;8.00;86.15
36222;BME280;22266;52.340;4.962;2023-02-20T09:28:34;102142.66;;;8.00;86.13
36222;BME280;22266;52.340;4.962;2023-02-20T09:31:01;102148.75;;;8.02;86.57
36222;BME280;22266;52.340;4.962;2023-02-20T09:33:28;102147.56;;;8.14;86.27
36222;BME280;22266;52.340;4.962;2023-02-20T09:35:55;102149.00;;;8.09;86.14
36222;BME280;22266;52.340;4.962;2023-02-20T09:38:22;102152.78;;;8.16;85.65
36222;BME280;22266;52.340;4.962;2023-02-20T09:40:53;102155.06;;;8.11;85.92
36222;BME280;22266;52.340;4.962;2023-02-20T09:43:29;102158.44;;;8.13;85.71
36222;BME280;22266;52.340;4.962;2023-02-20T09:46:19;102160.66;;;8.17;85.89
36222;BME280;22266;52.340;4.962;2023-02-20T09:51:29;102176.22;;;8.14;86.30
36222;BME280;22266;52.340;4.962;2023-02-20T09:56:34;102159.69;;;8.18;86.08
36222;BME280;22266;52.340;4.962;2023-02-20T09:59:16;102161.50;;;8.28;85.31
36222;BME280;22266;52.340;4.962;2023-02-20T10:02:08;102142.59;;;8.20;85.34
36222;BME280;22266;52.340;4.962;2023-02-20T10:04:40;102141.09;;;8.07;85.82
36222;BME280;22266;52.340;4.962;2023-02-20T10:09:58;102138.78;;;8.22;85.78
36222;BME280;22266;52.340;4.962;2023-02-20T10:12:43;102116.03;;;8.26;85.47
36222;BME280;22266;52.340;4.962;2023-02-20T10:15:32;102113.09;;;8.20;85.92
36222;BME280;22266;52.340;4.962;2023-02-20T10:18:22;102138.19;;;8.28;86.35
36222;BME280;22266;52.340;4.962;2023-02-20T10:23:56;102121.25;;;8.28;85.81
36222;BME280;22266;52.340;4.962;2023-02-20T10:26:40;102128.28;;;8.38;85.16
36222;BME280;22266;52.340;4.962;2023-02-20T10:29:26;102139.72;;;8.40;85.26
36222;BME280;22266;52.340;4.962;2023-02-20T10:32:02;102138.81;;;8.50;85.40
36222;BME280;22266;52.340;4.962;2023-02-20T10:34:37;102134.19;;;8.52;84.38
36222;BME280;22266;52.340;4.962;2023-02-20T10:37:11;102135.84;;;8.53;84.81
36222;BME280;22266;52.340;4.962;2023-02-20T10:39:47;102133.16;;;8.53;84.42
36222;BME280;22266;52.340;4.962;2023-02-20T10:42:24;102117.06;;;8.53;84.31
36222;BME280;22266;52.340;4.962;2023-02-20T10:44:59;102134.13;;;8.61;84.42
36222;BME280;22266;52.340;4.962;2023-02-20T10:47:50;102155.34;;;8.55;84.26
36222;BME280;22266;52.340;4.962;2023-02-20T10:50:22;102159.16;;;8.52;84.72
36222;BME280;22266;52.340;4.962;2023-02-20T10:52:58;102148.03;;;8.47;84.20
36222;BME280;22266;52.340;4.962;2023-02-20T10:55:34;102135.00;;;8.52;84.52
36222;BME280;22266;52.340;4.962;2023-02-20T10:58:09;102130.66;;;8.51;84.34
36222;BME280;22266;52.340;4.962;2023-02-20T11:00:43;102131.34;;;8.53;84.56
36222;BME280;22266;52.340;4.962;2023-02-20T11:03:17;102129.91;;;8.59;84.75
36222;BME280;22266;52.340;4.962;2023-02-20T11:05:50;102116.50;;;8.59;83.95
36222;BME280;22266;52.340;4.962;2023-02-20T11:08:19;102120.97;;;8.58;84.80
36222;BME280;22266;52.340;4.962;2023-02-20T11:10:48;102127.16;;;8.69;84.50
36222;BME280;22266;52.340;4.962;2023-02-20T11:13:17;102150.59;;;8.66;83.80
36222;BME280;22266;52.340;4.962;2023-02-20T11:15:46;102151.47;;;8.67;83.65
36222;BME280;22266;52.340;4.962;2023-02-20T11:18:23;102170.56;;;8.64;84.19
36222;BME280;22266;52.340;4.962;2023-02-20T11:20:52;102157.25;;;8.62;84.41
36222;BME280;22266;52.340;4.962;2023-02-20T11:23:42;102153.63;;;8.63;84.30
36222;BME280;22266;52.340;4.962;2023-02-20T11:26:28;102144.41;;;8.66;84.36
36222;BME280;22266;52.340;4.962;2023-02-20T11:28:59;102145.50;;;8.73;83.78
36222;BME280;22266;52.340;4.962;2023-02-20T11:31:27;102140.75;;;8.67;84.41
36222;BME280;22266;52.340;4.962;2023-02-20T11:33:54;102151.31;;;8.69;83.83
36222;BME280;22266;52.340;4.962;2023-02-20T11:36:24;102137.28;;;8.75;84.22
36222;BME280;22266;52.340;4.962;2023-02-20T11:38:58;102133.06;;;8.72;83.97
36222;BME280;22266;52.340;4.962;2023-02-20T11:41:30;102149.09;;;8.64;83.84
36222;BME280;22266;52.340;4.962;2023-02-20T11:44:06;102158.38;;;8.70;83.45
36222;BME280;22266;52.340;4.962;2023-02-20T11:46:33;102140.28;;;8.72;83.61
36222;BME280;22266;52.340;4.962;2023-02-20T11:49:05;102144.03;;;8.79;83.78
36222;BME280;22266;52.340;4.962;2023-02-20T11:51:37;102124.94;;;8.82;83.53
36222;BME280;22266;52.340;4.962;2023-02-20T11:56:36;102116.25;;;8.70;83.82
36222;BME280;22266;52.340;4.962;2023-02-20T12:01:53;102125.41;;;8.77;84.32
36222;BME280;22266;52.340;4.962;2023-02-20T12:04:26;102142.34;;;8.78;83.61
36222;BME280;22266;52.340;4.962;2023-02-20T12:06:53;102129.63;;;8.80;83.24
36222;BME280;22266;52.340;4.962;2023-02-20T12:09:23;102130.47;;;8.80;83.63
36222;BME280;22266;52.340;4.962;2023-02-20T12:11:53;102116.50;;;8.77;83.68
36222;BME280;22266;52.340;4.962;2023-02-20T12:14:22;102125.09;;;8.80;83.50
36222;BME280;22266;52.340;4.962;2023-02-20T12:17:04;102120.66;;;8.89;83.47
36222;BME280;22266;52.340;4.962;2023-02-20T12:19:53;102130.28;;;8.91;82.96
36222;BME280;22266;52.340;4.962;2023-02-20T12:22:36;102120.50;;;8.90;83.24
36222;BME280;22266;52.340;4.962;2023-02-20T12:27:56;102117.22;;;8.97;83.26
36222;BME280;22266;52.340;4.962;2023-02-20T12:36:16;102108.25;;;9.06;82.57
36222;BME280;22266;52.340;4.962;2023-02-20T12:38:51;102117.97;;;9.07;82.14
36222;BME280;22266;52.340;4.962;2023-02-20T12:46:57;102077.56;;;9.08;82.29
36222;BME280;22266;52.340;4.962;2023-02-20T12:49:39;102093.19;;;8.95;83.04
36222;BME280;22266;52.340;4.962;2023-02-20T12:55:10;102095.34;;;9.09;82.34
36222;BME280;22266;52.340;4.962;2023-02-20T12:57:52;102110.00;;;9.15;81.83
36222;BME280;22266;52.340;4.962;2023-02-20T13:00:40;102104.63;;;9.15;82.36
36222;BME280;22266;52.340;4.962;2023-02-20T13:03:12;102112.41;;;9.00;82.42
36222;BME280;22266;52.340;4.962;2023-02-20T13:05:43;102099.66;;;9.02;82.08
36222;BME280;22266;52.340;4.962;2023-02-20T13:08:33;102100.44;;;9.12;81.78
36222;BME280;22266;52.340;4.962;2023-02-20T13:11:09;102114.44;;;9.06;82.16
36222;BME280;22266;52.340;4.962;2023-02-20T13:13:46;102115.84;;;9.10;81.89
36222;BME280;22266;52.340;4.962;2023-02-20T13:16:27;102111.38;;;9.19;81.84
36222;BME280;22266;52.340;4.962;2023-02-20T13:21:30;102096.91;;;9.12;81.93
36222;BME280;22266;52.340;4.962;2023-02-20T13:26:49;102097.94;;;9.19;81.89
36222;BME280;22266;52.340;4.962;2023-02-20T13:29:20;102081.00;;;9.19;82.18
36222;BME280;22266;52.340;4.962;2023-02-20T13:31:51;102087.13;;;9.11;81.83
36222;BME280;22266;52.340;4.962;2023-02-20T13:36:46;102086.81;;;9.14;81.60
36222;BME280;22266;52.340;4.962;2023-02-20T13:49:54;102063.97;;;8.92;82.17
36222;BME280;22266;52.340;4.962;2023-02-20T13:52:43;102046.09;;;9.01;81.83
36222;BME280;22266;52.340;4.962;2023-02-20T13:55:17;102056.84;;;9.01;82.21
36222;BME280;22266;52.340;4.962;2023-02-20T13:57:48;102053.97;;;9.02;81.72
36222;BME280;22266;52.340;4.962;2023-02-20T14:02:50;102050.47;;;9.02;82.05
36222;BME280;22266;52.340;4.962;2023-02-20T14:05:28;102050.28;;;9.03;82.31
36222;BME280;22266;52.340;4.962;2023-02-20T14:07:57;102060.38;;;9.01;82.51
36222;BME280;22266;52.340;4.962;2023-02-20T14:15:51;102064.34;;;9.15;81.37
36222;BME280;22266;52.340;4.962;2023-02-20T14:18:30;102070.25;;;9.01;82.22
36222;BME280;22266;52.340;4.962;2023-02-20T14:21:18;102071.94;;;9.02;81.80
36222;BME280;22266;52.340;4.962;2023-02-20T14:23:46;102063.06;;;9.01;81.89
36222;BME280;22266;52.340;4.962;2023-02-20T14:26:29;102071.41;;;8.98;82.18
36222;BME280;22266;52.340;4.962;2023-02-20T14:28:57;102064.72;;;9.02;82.11
36222;BME280;22266;52.340;4.962;2023-02-20T14:31:32;102064.81;;;9.10;82.31
36222;BME280;22266;52.340;4.962;2023-02-20T14:34:06;102063.97;;;9.10;81.57
36222;BME280;22266;52.340;4.962;2023-02-20T14:36:57;102069.03;;;9.13;81.50
36222;BME280;22266;52.340;4.962;2023-02-20T14:39:43;102056.53;;;9.04;82.22